Time,TemperatureF,DewpointF,PressureIn,WindDirection,WindDirectionDegrees,WindSpeedMPH,WindSpeedGustMPH,Humidity,HourlyPrecipIn,Conditions,Clouds,dailyrainin,SoftwareType,DateUTC
2013-01-29 00:01:00,19.0,15.0,29.67,SE,128,1.0,5.0,85,0.00,,,0.00,,2013-01-29 07:01:00,
2013-01-29 00:11:00,19.0,15.0,29.67,SE,128,1.0,5.0,85,0.00,,,0.00,,2013-01-29 07:11:00,
2013-01-29 00:21:00,19.0,15.0,29.67,SE,141,1.0,3.0,85,0.00,,,0.00,,2013-01-29 07:21:00,
2013-01-29 00:31:00,19.0,15.0,29.67,SE,141,1.0,2.0,85,0.00,,,0.00,,2013-01-29 07:31:00,
2013-01-29 00:41:00,19.0,15.0,29.67,SE,141,1.0,2.0,85,0.00,,,0.00,,2013-01-29 07:41:00,
2013-01-29 00:52:00,19.0,15.0,29.70,SE,141,2.0,3.0,85,0.00,,,0.00,,2013-01-29 07:52:00,
2013-01-29 01:02:00,19.0,15.0,29.70,SW,228,3.0,10.0,84,0.00,,,0.00,,2013-01-29 08:02:00,
2013-01-29 01:11:00,19.0,15.0,29.70,SW,228,3.0,10.0,84,0.00,,,0.00,,2013-01-29 08:11:00,
2013-01-29 01:21:00,18.0,12.0,29.70,SW,234,8.0,12.0,76,0.00,,,0.00,,2013-01-29 08:21:00,
2013-01-29 01:31:00,18.0,11.0,29.70,SW,232,7.0,12.0,75,0.00,,,0.00,,2013-01-29 08:31:00,
2013-01-29 01:41:00,18.0,11.0,29.70,SW,232,7.0,12.0,75,0.00,,,0.00,,2013-01-29 08:41:00,
2013-01-29 01:52:00,18.0,11.0,29.70,SW,231,6.0,12.0,72,0.00,,,0.00,,2013-01-29 08:52:00,
2013-01-29 02:01:00,18.0,10.0,29.70,SW,232,4.0,10.0,70,0.00,,,0.00,,2013-01-29 09:01:00,
2013-01-29 02:11:00,18.0,10.0,29.70,SW,232,4.0,10.0,70,0.00,,,0.00,,2013-01-29 09:11:00,
2013-01-29 02:21:00,17.0,8.0,29.70,SW,227,5.0,12.0,67,0.00,,,0.00,,2013-01-29 09:21:00,
2013-01-29 02:31:00,16.0,6.0,29.70,West,260,5.0,7.0,65,0.00,,,0.00,,2013-01-29 09:31:00,
2013-01-29 02:42:00,16.0,6.0,29.70,West,260,5.0,7.0,65,0.00,,,0.00,,2013-01-29 09:42:00,
2013-01-29 02:52:00,16.0,6.0,29.75,WSW,251,5.0,6.0,64,0.00,,,0.00,,2013-01-29 09:52:00,
2013-01-29 03:01:00,16.0,6.0,29.75,WSW,251,5.0,6.0,64,0.00,,,0.00,,2013-01-29 10:01:00,
2013-01-29 03:11:00,16.0,6.0,29.75,WSW,251,5.0,6.0,64,0.00,,,0.00,,2013-01-29 10:11:00,
2013-01-29 03:21:00,16.0,3.0,29.76,WSW,238,6.0,12.0,56,0.00,,,0.00,,2013-01-29 10:21:00,
2013-01-29 03:32:00,16.0,3.0,29.76,WSW,247,3.0,10.0,56,0.00,,,0.00,,2013-01-29 10:32:00,
2013-01-29 03:42:00,16.0,3.0,29.76,WSW,247,3.0,10.0,56,0.00,,,0.00,,2013-01-29 10:42:00,
2013-01-29 03:52:00,16.0,1.0,29.74,WSW,255,9.0,13.0,51,0.00,,,0.00,,2013-01-29 10:52:00,
2013-01-29 04:01:00,16.0,0.0,29.74,West,265,10.0,17.0,49,0.00,,,0.00,,2013-01-29 11:01:00,
2013-01-29 04:11:00,16.0,0.0,29.74,West,265,10.0,17.0,49,0.00,,,0.00,,2013-01-29 11:11:00,
2013-01-29 04:21:00,16.0,-1.0,29.74,SW,234,10.0,16.0,46,0.00,,,0.00,,2013-01-29 11:21:00,
2013-01-29 04:32:00,16.0,0.0,29.74,SW,227,9.0,17.0,48,0.00,,,0.00,,2013-01-29 11:32:00,
2013-01-29 04:42:00,16.0,0.0,29.74,SW,227,9.0,17.0,48,0.00,,,0.00,,2013-01-29 11:42:00,
2013-01-29 04:53:00,15.0,2.0,29.78,WSW,251,8.0,13.0,55,0.00,,,0.00,,2013-01-29 11:53:00,
2013-01-29 05:02:00,14.0,0.0,29.78,WSW,255,7.0,12.0,54,0.00,,,0.00,,2013-01-29 12:02:00,
2013-01-29 05:12:00,14.0,0.0,29.78,WSW,255,7.0,12.0,54,0.00,,,0.00,,2013-01-29 12:12:00,
2013-01-29 05:22:00,14.0,-1.0,29.79,WSW,254,6.0,12.0,51,0.00,,,0.00,,2013-01-29 12:22:00,
2013-01-29 05:32:00,14.0,-2.0,29.79,SW,214,6.0,10.0,49,0.00,,,0.00,,2013-01-29 12:32:00,
2013-01-29 05:42:00,14.0,-2.0,29.79,SW,214,6.0,10.0,49,0.00,,,0.00,,2013-01-29 12:42:00,
2013-01-29 05:53:00,14.0,-2.0,29.79,WSW,255,8.0,16.0,47,0.00,,,0.00,,2013-01-29 12:53:00,
2013-01-29 06:02:00,15.0,-3.0,29.79,West,273,8.0,20.0,43,0.00,,,0.00,,2013-01-29 13:02:00,
2013-01-29 06:11:00,15.0,-3.0,29.79,West,273,8.0,20.0,43,0.00,,,0.00,,2013-01-29 13:11:00,
2013-01-29 06:22:00,14.0,-5.0,29.80,WNW,282,9.0,17.0,41,0.00,,,0.00,,2013-01-29 13:22:00,
2013-01-29 06:32:00,14.0,-6.0,29.80,WSW,247,10.0,18.0,39,0.00,,,0.00,,2013-01-29 13:32:00,
2013-01-29 06:42:00,14.0,-6.0,29.80,WSW,247,10.0,18.0,39,0.00,,,0.00,,2013-01-29 13:42:00,
2013-01-29 06:52:00,14.0,-6.0,29.79,SW,230,11.0,22.0,39,0.00,,,0.00,,2013-01-29 13:52:00,
2013-01-29 07:02:00,14.0,-7.0,29.79,SW,235,7.0,28.0,38,0.00,,,0.00,,2013-01-29 14:02:00,
2013-01-29 07:12:00,14.0,-5.0,29.79,SSW,207,8.0,20.0,41,0.00,,,0.00,,2013-01-29 14:12:00,
2013-01-29 07:22:00,14.0,-5.0,29.79,SSW,207,8.0,20.0,41,0.00,,,0.00,,2013-01-29 14:22:00,
2013-01-29 07:33:00,13.0,-6.0,29.79,WSW,241,3.0,17.0,42,0.00,,,0.00,,2013-01-29 14:33:00,
2013-01-29 07:43:00,13.0,-6.0,29.79,WSW,241,3.0,17.0,42,0.00,,,0.00,,2013-01-29 14:43:00,
2013-01-29 07:53:00,13.0,-6.0,29.83,West,265,7.0,16.0,41,0.00,,,0.00,,2013-01-29 14:53:00,
2013-01-29 08:02:00,13.0,-7.0,29.83,West,264,5.0,8.0,40,0.00,,,0.00,,2013-01-29 15:02:00,
2013-01-29 08:12:00,13.0,-7.0,29.83,West,264,5.0,8.0,40,0.00,,,0.00,,2013-01-29 15:12:00,
2013-01-29 08:22:00,13.0,-6.0,29.84,West,261,6.0,13.0,41,0.00,,,0.00,,2013-01-29 15:22:00,
2013-01-29 08:33:00,13.0,-6.0,29.84,WSW,240,14.0,20.0,42,0.00,,,0.00,,2013-01-29 15:33:00,
2013-01-29 08:42:00,13.0,-6.0,29.84,WSW,240,14.0,20.0,42,0.00,,,0.00,,2013-01-29 15:42:00,
2013-01-29 08:53:00,13.0,-6.0,29.85,WSW,255,9.0,20.0,42,0.00,,,0.00,,2013-01-29 15:53:00,
2013-01-29 09:02:00,13.0,-6.0,29.85,WSW,255,9.0,20.0,42,0.00,,,0.00,,2013-01-29 16:02:00,
2013-01-29 09:12:00,13.0,-6.0,29.85,WSW,255,9.0,20.0,42,0.00,,,0.00,,2013-01-29 16:12:00,
2013-01-29 09:22:00,13.0,-6.0,29.85,WSW,243,13.0,20.0,42,0.00,,,0.00,,2013-01-29 16:22:00,
2013-01-29 09:32:00,14.0,-6.0,29.83,SW,234,10.0,20.0,40,0.00,,,0.00,,2013-01-29 16:32:00,
2013-01-29 09:42:00,14.0,-6.0,29.83,SW,234,10.0,20.0,40,0.00,,,0.00,,2013-01-29 16:42:00,
2013-01-29 09:52:00,14.0,-6.0,29.83,SW,234,10.0,20.0,40,0.00,,,0.00,,2013-01-29 16:52:00,
2013-01-29 10:03:00,14.0,-6.0,29.83,SW,234,10.0,20.0,40,0.00,,,0.00,,2013-01-29 17:03:00,
2013-01-29 10:33:00,18.0,-7.0,29.81,West,272,9.0,18.0,31,0.00,,,0.00,,2013-01-29 17:33:00,
2013-01-29 10:42:00,18.0,-7.0,29.81,West,272,9.0,18.0,31,0.00,,,0.00,,2013-01-29 17:42:00,
2013-01-29 10:52:00,18.0,-7.0,29.84,WSW,254,12.0,20.0,31,0.00,,,0.00,,2013-01-29 17:52:00,
2013-01-29 11:04:00,18.0,-6.0,29.84,WSW,249,12.0,22.0,33,0.00,,,0.00,,2013-01-29 18:04:00,
2013-01-29 11:12:00,18.0,-6.0,29.84,WSW,249,12.0,22.0,33,0.00,,,0.00,,2013-01-29 18:12:00,
2013-01-29 11:22:00,19.0,-8.0,29.83,West,263,8.0,17.0,29,0.00,,,0.00,,2013-01-29 18:22:00,
2013-01-29 11:33:00,20.0,-7.0,29.83,West,270,9.0,21.0,29,0.00,,,0.00,,2013-01-29 18:33:00,
2013-01-29 11:42:00,20.0,-7.0,29.83,West,270,9.0,21.0,29,0.00,,,0.00,,2013-01-29 18:42:00,
2013-01-29 11:52:00,20.0,-9.0,29.83,WSW,243,13.0,18.0,27,0.00,,,0.00,,2013-01-29 18:52:00,
2013-01-29 12:02:00,20.0,-9.0,29.83,WSW,243,13.0,18.0,27,0.00,,,0.00,,2013-01-29 19:02:00,
2013-01-29 12:12:00,20.0,-9.0,29.83,WSW,243,13.0,18.0,27,0.00,,,0.00,,2013-01-29 19:12:00,
2013-01-29 12:22:00,21.0,-7.0,29.80,SW,227,15.0,22.0,28,0.00,,,0.00,,2013-01-29 19:22:00,
2013-01-29 12:32:00,21.0,-6.0,29.80,West,261,12.0,24.0,30,0.00,,,0.00,,2013-01-29 19:32:00,
2013-01-29 12:42:00,21.0,-6.0,29.80,West,261,12.0,24.0,30,0.00,,,0.00,,2013-01-29 19:42:00,
2013-01-29 12:52:00,22.0,-5.0,29.81,West,278,9.0,20.0,29,0.00,,,0.00,,2013-01-29 19:52:00,
2013-01-29 13:02:00,22.0,-6.0,29.81,WSW,256,13.0,25.0,28,0.00,,,0.00,,2013-01-29 20:02:00,
2013-01-29 13:12:00,22.0,-6.0,29.81,WSW,256,13.0,25.0,28,0.00,,,0.00,,2013-01-29 20:12:00,
2013-01-29 13:22:00,23.0,-4.0,29.79,WSW,256,10.0,24.0,29,0.00,,,0.00,,2013-01-29 20:22:00,
2013-01-29 13:33:00,23.0,-4.0,29.79,WSW,256,10.0,24.0,29,0.00,,,0.00,,2013-01-29 20:33:00,
2013-01-29 13:42:00,23.0,-4.0,29.79,WSW,256,10.0,24.0,29,0.00,,,0.00,,2013-01-29 20:42:00,
2013-01-29 13:53:00,23.0,-5.0,29.81,SW,231,7.0,21.0,28,0.00,,,0.00,,2013-01-29 20:53:00,
2013-01-29 14:02:00,23.0,-5.0,29.81,SW,231,7.0,21.0,28,0.00,,,0.00,,2013-01-29 21:02:00,
2013-01-29 14:12:00,23.0,-5.0,29.81,SW,231,7.0,21.0,28,0.00,,,0.00,,2013-01-29 21:12:00,
2013-01-29 14:22:00,23.0,-6.0,29.82,WSW,240,12.0,21.0,27,0.00,,,0.00,,2013-01-29 21:22:00,
2013-01-29 14:34:00,23.0,-6.0,29.82,WSW,240,12.0,21.0,27,0.00,,,0.00,,2013-01-29 21:34:00,
2013-01-29 14:42:00,23.0,-6.0,29.82,WSW,240,12.0,21.0,27,0.00,,,0.00,,2013-01-29 21:42:00,
2013-01-29 14:53:00,22.0,-5.0,29.85,SW,236,6.0,17.0,29,0.00,,,0.00,,2013-01-29 21:53:00,
2013-01-29 15:02:00,22.0,-6.0,29.85,WSW,247,6.0,20.0,28,0.00,,,0.00,,2013-01-29 22:02:00,
2013-01-29 15:12:00,22.0,-6.0,29.85,WSW,247,6.0,20.0,28,0.00,,,0.00,,2013-01-29 22:12:00,
2013-01-29 15:22:00,22.0,-7.0,29.84,West,262,5.0,14.0,27,0.00,,,0.00,,2013-01-29 22:22:00,
2013-01-29 15:33:00,21.0,-6.0,29.87,WNW,292,9.0,14.0,29,0.00,,,0.00,,2013-01-29 22:33:00,
2013-01-29 15:42:00,21.0,-6.0,29.87,WNW,292,9.0,14.0,29,0.00,,,0.00,,2013-01-29 22:42:00,
2013-01-29 15:52:00,19.0,-2.0,29.91,SW,232,6.0,12.0,39,0.00,,,0.00,,2013-01-29 22:52:00,
2013-01-29 16:02:00,19.0,-2.0,29.91,SW,232,6.0,12.0,39,0.00,,,0.00,,2013-01-29 23:02:00,
2013-01-29 16:12:00,19.0,-2.0,29.91,SW,232,6.0,12.0,39,0.00,,,0.00,,2013-01-29 23:12:00,
2013-01-29 16:22:00,20.0,-8.0,29.91,WNW,285,7.0,16.0,28,0.00,,,0.00,,2013-01-29 23:22:00,
2013-01-29 16:32:00,20.0,-8.0,29.91,West,270,7.0,12.0,28,0.00,,,0.00,,2013-01-29 23:32:00,
2013-01-29 16:42:00,20.0,-8.0,29.91,West,270,7.0,12.0,28,0.00,,,0.00,,2013-01-29 23:42:00,
2013-01-29 16:53:00,18.0,-7.0,29.97,WSW,256,5.0,12.0,32,0.00,,,0.00,,2013-01-29 23:53:00,
2013-01-29 17:02:00,17.0,-6.0,29.97,West,262,7.0,12.0,34,0.00,,,0.00,,2013-01-30 00:02:00,
2013-01-29 17:12:00,17.0,-6.0,29.97,West,262,7.0,12.0,34,0.00,,,0.00,,2013-01-30 00:12:00,
2013-01-29 17:22:00,16.0,-2.0,30.00,West,276,3.0,10.0,43,0.00,,,0.00,,2013-01-30 00:22:00,
2013-01-29 17:32:00,16.0,-3.0,30.00,WNW,292,4.0,8.0,42,0.00,,,0.00,,2013-01-30 00:32:00,
2013-01-29 17:42:00,16.0,-3.0,30.00,WNW,292,4.0,8.0,42,0.00,,,0.00,,2013-01-30 00:42:00,
2013-01-29 17:53:00,16.0,-6.0,30.04,WNW,296,2.0,8.0,37,0.00,,,0.00,,2013-01-30 00:53:00,
2013-01-29 18:02:00,16.0,-6.0,30.04,WNW,296,2.0,8.0,37,0.00,,,0.00,,2013-01-30 01:02:00,
2013-01-29 18:12:00,16.0,-6.0,30.04,WNW,296,2.0,8.0,37,0.00,,,0.00,,2013-01-30 01:12:00,
2013-01-29 18:22:00,15.0,-7.0,30.04,WNW,300,2.0,10.0,36,0.00,,,0.00,,2013-01-30 01:22:00,
2013-01-29 18:32:00,15.0,-8.0,30.04,WNW,289,3.0,12.0,35,0.00,,,0.00,,2013-01-30 01:32:00,
2013-01-29 18:43:00,15.0,-8.0,30.04,WNW,289,3.0,12.0,35,0.00,,,0.00,,2013-01-30 01:43:00,
2013-01-29 18:52:00,14.0,-7.0,30.07,WNW,299,1.0,5.0,38,0.00,,,0.00,,2013-01-30 01:52:00,
2013-01-29 19:02:00,14.0,-6.0,30.07,NW,304,3.0,7.0,40,0.00,,,0.00,,2013-01-30 02:02:00,
2013-01-29 19:12:00,14.0,-5.0,30.09,NW,309,1.0,5.0,41,0.00,,,0.00,,2013-01-30 02:12:00,
2013-01-29 19:22:00,14.0,-5.0,30.09,NW,309,1.0,5.0,41,0.00,,,0.00,,2013-01-30 02:22:00,
2013-01-29 19:33:00,14.0,-5.0,30.09,NW,309,1.0,5.0,41,0.00,,,0.00,,2013-01-30 02:33:00,
2013-01-29 19:42:00,14.0,-5.0,30.09,NW,309,1.0,5.0,41,0.00,,,0.00,,2013-01-30 02:42:00,
2013-01-29 19:53:00,12.0,-6.0,30.11,NW,304,1.0,3.0,44,0.00,,,0.00,,2013-01-30 02:53:00,
2013-01-29 20:02:00,12.0,-6.0,30.11,NW,304,1.0,3.0,44,0.00,,,0.00,,2013-01-30 03:02:00,
2013-01-29 20:12:00,12.0,-6.0,30.11,NW,304,1.0,3.0,44,0.00,,,0.00,,2013-01-30 03:12:00,
2013-01-29 20:22:00,11.0,-4.0,30.15,NW,304,2.0,3.0,49,0.00,,,0.00,,2013-01-30 03:22:00,
2013-01-29 20:32:00,10.0,-4.0,30.15,NNW,330,1.0,3.0,51,0.00,,,0.00,,2013-01-30 03:32:00,
2013-01-29 20:42:00,10.0,-4.0,30.15,NNW,330,1.0,3.0,51,0.00,,,0.00,,2013-01-30 03:42:00,
2013-01-29 20:52:00,10.0,-4.0,30.15,NNW,330,1.0,3.0,51,0.00,,,0.00,,2013-01-30 03:52:00,
2013-01-29 21:02:00,9.0,-5.0,30.17,NW,310,2.0,5.0,52,0.00,,,0.00,,2013-01-30 04:02:00,
2013-01-29 21:11:00,9.0,-5.0,30.17,NW,310,2.0,5.0,52,0.00,,,0.00,,2013-01-30 04:11:00,
2013-01-29 21:22:00,10.0,-5.0,30.18,WNW,297,3.0,6.0,50,0.00,,,0.00,,2013-01-30 04:22:00,
2013-01-29 21:32:00,9.0,-5.0,30.16,North,350,2.0,5.0,51,0.00,,,0.00,,2013-01-30 04:32:00,
2013-01-29 21:41:00,9.0,-5.0,30.16,North,350,2.0,5.0,51,0.00,,,0.00,,2013-01-30 04:41:00,
2013-01-29 21:52:00,7.0,-6.0,30.17,North,350,0.0,2.0,54,0.00,,,0.00,,2013-01-30 04:52:00,
2013-01-29 22:03:00,7.0,-6.0,30.17,North,350,0.0,3.0,54,0.00,,,0.00,,2013-01-30 05:03:00,
2013-01-29 22:12:00,7.0,-6.0,30.17,North,351,1.0,5.0,54,0.00,,,0.00,,2013-01-30 05:12:00,
2013-01-29 22:22:00,7.0,-6.0,30.17,North,351,1.0,5.0,54,0.00,,,0.00,,2013-01-30 05:22:00,
2013-01-29 22:32:00,5.0,-7.0,30.20,North,351,1.0,2.0,56,0.00,,,0.00,,2013-01-30 05:32:00,
2013-01-29 22:42:00,5.0,-7.0,30.20,North,351,1.0,2.0,56,0.00,,,0.00,,2013-01-30 05:42:00,
2013-01-29 22:52:00,9.0,-6.0,30.16,WNW,284,5.0,10.0,49,0.00,,,0.00,,2013-01-30 05:52:00,
2013-01-29 23:02:00,10.0,-7.0,30.16,WNW,292,5.0,10.0,46,0.00,,,0.00,,2013-01-30 06:02:00,
2013-01-29 23:11:00,10.0,-7.0,30.16,WNW,292,5.0,10.0,46,0.00,,,0.00,,2013-01-30 06:11:00,
2013-01-29 23:21:00,10.0,-7.0,30.14,WNW,300,3.0,8.0,45,0.00,,,0.00,,2013-01-30 06:21:00,
2013-01-29 23:32:00,10.0,-7.0,30.14,NW,316,3.0,7.0,46,0.00,,,0.00,,2013-01-30 06:32:00,
2013-01-29 23:42:00,10.0,-7.0,30.14,NW,316,3.0,7.0,46,0.00,,,0.00,,2013-01-30 06:42:00,
2013-01-29 23:52:00,10.0,-7.0,30.13,NW,313,2.0,5.0,46,0.00,,,0.00,,2013-01-30 06:52:00,